Flight Track Log - Related Links

Times and Time Zones

All times are in EDT time to prevent confusion due to time zone crossing. See the DAL268 flight status page for this flight to view local times or setup timezone preferences in your user account.

Time Position Orientation Groundspeed Altitude Reporting Facility
EDT Latitude Longitude Course Direction KTS MPH feet Rate Location/Type
Sat 14:18:42 37.6160 -122.3820 112° Southeast 10 12  Level FlightAware ADS-B
Sat 14:22:23 37.6150 -122.3810 142° Southeast 14 16 17 Level FlightAware ADS-B
Sat 14:24:42 37.6120 -122.3830 208° Southwest 14 16 21 Level FlightAware ADS-B
Sat 14:27:00 37.8311 -122.1523 38° Northeast  Level FlightAware Approximate
Sat 14:28:00 37.9288 -122.0545 38° Northeast  Level FlightAware Approximate
Sat 14:29:00 38.0180 -121.9531 35° Northeast  Level FlightAware Approximate
Sat 14:30:00 38.1204 -121.8630 38° Northeast  Level FlightAware Approximate
Sat 14:30:24 37.6070 -122.3840 38° Northeast 13 15  Level FlightAware ADS-B
Sat 14:33:00 37.8604 -122.1230 38° Northeast  Level FlightAware Approximate
Sat 14:33:52 37.6060 -122.3830 38° Northeast  Level FlightAware ADS-B
Sat 14:34:00 37.9582 -122.0252 38° Northeast  Level FlightAware Approximate
Sat 14:34:29 37.6060 -122.3820 90° East 9 10  Level FlightAware ADS-B
Sat 14:36:02 37.6070 -122.3810 38° Northeast 33 38 140 Level FlightAware ADS-B
Sat 14:36:28 37.6170 -122.3740 29° Northeast 150 173 500 Level FlightAware ADS-B
Sat 14:36:38 37.6238 -122.3690 30° Northeast 163 188 300 2,211 Climbing FlightAware ADS-B
Sat 14:36:47 37.6298 -122.3650 28° Northeast 161 185 700 2,571 Climbing FlightAware ADS-B
Sat 14:36:52 37.6329 -122.3620 37° Northeast 163 188 900 2,182 Climbing FlightAware ADS-B
Sat 14:36:58 37.6366 -122.3590 33° Northeast 167 192 1,100 2,143 Climbing FlightAware ADS-B
Sat 14:37:06 37.6410 -122.3540 42° Northeast 174 200 1,400 1,846 Climbing FlightAware ADS-B
Sat 14:37:11 37.6438 -122.3500 49° Northeast 179 206 1,500 2,400 Climbing FlightAware ADS-B
Sat 14:37:26 37.6529 -122.3380 46° Northeast 182 209 2,200 2,323 Climbing FlightAware ADS-B
Sat 14:37:42 37.6621 -122.3260 46° Northeast 190 219 2,700 1,548 Climbing FlightAware ADS-B
Sat 14:37:57 37.6718 -122.3140 44° Northeast 205 236 3,000 1,200 Climbing FlightAware ADS-B
Sat 14:38:12 37.6822 -122.3000 47° Northeast 222 255 3,300 1,355 Climbing FlightAware ADS-B
Sat 14:38:28 37.6939 -122.2850 45° Northeast 236 272 3,700 1,500 Climbing FlightAware ADS-B
Sat 14:38:44 37.7072 -122.2680 45° Northeast 250 288 4,100 1,636 Climbing FlightAware ADS-B
Sat 14:39:01 37.7216 -122.2500 45° Northeast 263 303 4,600 1,941 Climbing FlightAware ADS-B
Sat 14:39:18 37.7369 -122.2310 44° Northeast 273 314 5,200 2,308 Climbing FlightAware ADS-B
Sat 14:39:40 37.7567 -122.2060 45° Northeast 277 319 6,100 2,368 Climbing FlightAware ADS-B
Sat 14:39:56 37.7718 -122.1870 45° Northeast 281 323 6,700 2,294 Climbing FlightAware ADS-B
Sat 14:40:14 37.7885 -122.1660 45° Northeast 285 328 7,400 2,167 Climbing FlightAware ADS-B
Sat 14:40:32 37.8050 -122.1460 44° Northeast 290 334 8,000 2,222 Climbing FlightAware ADS-B
Sat 14:40:41 37.8142 -122.1350 43° Northeast 292 336 8,400 2,500 Climbing FlightAware ADS-B
Sat 14:40:56 37.8304 -122.1190 38° Northeast 294 338 9,000 2,323 Climbing FlightAware ADS-B
Sat 14:41:12 37.8480 -122.1020 37° Northeast 295 339 9,600 1,915 Climbing FlightAware ADS-B
Sat 14:41:43 37.8824 -122.0700 36° Northeast 309 356 10,500 1,258 Climbing FlightAware ADS-B
Sat 14:42:14 37.9210 -122.0350 36° Northeast 342 394 10,900 923 Climbing FlightAware ADS-B
Sat 14:42:48 37.9656 -121.9950 35° Northeast 365 420 11,500 1,217 Climbing FlightAware ADS-B
Sat 14:43:23 38.0163 -121.9480 36° Northeast 384 442 12,300 1,364 Climbing FlightAware ADS-B
Sat 14:44:16 38.0740 -121.8950 36° Northeast 397 457 13,500 1,765 Climbing FlightAware ADS-B
Sat 14:45:05 38.1690 -121.8070 36° Northeast 397 457 15,300 1,813 Climbing FlightAware ADS-B
Sat 14:45:52 38.2220 -121.7580 36° Northeast 418 481 16,400 1,846 Climbing FlightAware ADS-B
Sat 14:46:36 38.3120 -121.6750 36° Northeast 430 495 18,100 2,122 Climbing FlightAware ADS-B
Sat 14:47:14 38.3730 -121.6170 37° Northeast 434 499 19,300 2,083 Climbing FlightAware ADS-B
Sat 14:47:48 38.4276 -121.5650 37° Northeast 417 480 20,600 2,087 Climbing FlightAware ADS-B
Sat 14:48:23 38.4739 -121.5010 47° Northeast 428 493 21,700 1,610 Climbing FlightAware ADS-B
Sat 14:49:10 38.5308 -121.4040 53° Northeast 428 493 22,800 1,481 Climbing FlightAware ADS-B
Sat 14:49:40 38.5667 -121.3410 54° Northeast 441 507 23,600 1,475 Climbing FlightAware ADS-B
Sat 14:50:11 38.6041 -121.2760 54° Northeast 446 513 24,300 1,212 Climbing FlightAware ADS-B
Sat 14:51:24 38.6960 -121.1180 53° Northeast 462 532 25,700 1,062 Climbing FlightAware ADS-B
Sat 14:52:04 38.7460 -121.0310 54° Northeast 474 545 26,300 988 Climbing FlightAware ADS-B
Sat 14:52:49 38.8050 -120.9280 54° Northeast 482 555 27,100 1,059 Climbing FlightAware ADS-B
Sat 14:53:29 38.8530 -120.8460 53° Northeast 487 560 27,800 1,238 Climbing FlightAware ADS-B
Sat 14:53:52 38.8900 -120.7820 53° Northeast 489 563 28,400 1,059 Climbing FlightAware ADS-B
Sat 14:54:37 38.9320 -120.7100 53° Northeast 491 565 29,000 1,054 Climbing FlightAware ADS-B
Sat 14:55:06 38.9760 -120.6320 54° Northeast 491 565 29,700 1,233 Climbing FlightAware ADS-B
Sat 14:55:50 39.0310 -120.5380 53° Northeast 495 570 30,500 1,286 Climbing FlightAware ADS-B
Sat 14:56:30 39.1050 -120.4080 54° Northeast 497 572 31,500 1,247 Climbing FlightAware ADS-B
Sat 14:57:07 39.1540 -120.3230 53° Northeast 501 577 32,100 940 Climbing FlightAware ADS-B
Sat 14:57:53 39.2070 -120.2300 54° Northeast 502 578 32,800 989 Climbing FlightAware ADS-B
Sat 14:58:38 39.2610 -120.1350 54° Northeast 501 577 33,600 1,111 Climbing FlightAware ADS-B
Sat 14:59:14 39.3140 -120.0430 53° Northeast 500 575 34,300 1,085 Climbing FlightAware ADS-B
Sat 15:00:12 39.4080 -119.8760 54° Northeast 497 572 35,300 1,143 Climbing FlightAware ADS-B
Sat 15:00:59 39.4710 -119.7640 54° Northeast 491 565 36,300 955 Climbing FlightAware ADS-B
Sat 15:01:40 39.5260 -119.6650 54° Northeast 494 568 36,700 506 Climbing FlightAware ADS-B
Sat 15:02:22 39.5830 -119.5640 54° Northeast 496 571 37,000 217 Climbing FlightAware ADS-B
Sat 15:03:03 39.6370 -119.4660 54° Northeast 495 570 37,000  Level FlightAware ADS-B
Sat 15:03:47 39.6880 -119.3750 54° Northeast 497 572 37,000  Level FlightAware ADS-B
Sat 15:04:26 39.7390 -119.2830 54° Northeast 495 570 37,000  Level FlightAware ADS-B
Sat 15:04:53 39.7680 -119.2300 55° Northeast 495 570 37,000  Level FlightAware ADS-B
Sat 15:05:35 39.8230 -119.1320 54° Northeast 495 570 37,000  Level FlightAware ADS-B
Sat 15:06:17 39.8960 -118.9980 55° Northeast 493 567 37,000  Level FlightAware ADS-B
Sat 15:06:48 39.9360 -118.9240 55° Northeast 493 567 37,000  Level FlightAware ADS-B
Sat 15:07:31 39.9940 -118.8190 54° Northeast 494 568 37,000  Level FlightAware ADS-B
Sat 15:08:13 40.0370 -118.7410 54° Northeast 493 567 37,000  Level FlightAware ADS-B
Sat 15:08:55 40.0960 -118.6320 55° Northeast 492 566 37,000  Level FlightAware ADS-B
Sat 15:09:43 40.1510 -118.4850 64° Northeast 491 565 37,000  Level FlightAware ADS-B
Sat 15:10:27 40.1850 -118.3630 70° East 491 565 37,000  Level FlightAware ADS-B
Sat 15:11:05 40.2170 -118.2630 67° East 491 565 37,000  Level FlightAware ADS-B
Sat 15:11:52 40.2590 -118.1420 66° East 491 565 37,000  Level FlightAware ADS-B
Sat 15:12:20 40.2770 -118.0940 64° Northeast 492 566 37,000  Level FlightAware ADS-B
Sat 15:13:04 40.3150 -117.9950 63° Northeast 492 566 37,000  Level FlightAware ADS-B
Sat 15:13:33 40.3440 -117.9160 64° Northeast 492 566 37,000  Level FlightAware ADS-B
Sat 15:14:09 40.3750 -117.8340 64° Northeast 492 566 37,000  Level FlightAware ADS-B
Sat 15:14:57 40.4160 -117.7240 64° Northeast 492 566 37,000  Level FlightAware ADS-B
Sat 15:15:33 40.4460 -117.6420 64° Northeast 492 566 37,000  Level FlightAware ADS-B
Sat 15:16:44 40.5060 -117.4800 64° Northeast 492 566 37,000  Level FlightAware ADS-B
Sat 15:17:23 40.5390 -117.3900 64° Northeast 492 566 37,000  Level FlightAware ADS-B
Sat 15:18:01 40.5720 -117.3030 63° Northeast 492 566 37,000  Level FlightAware ADS-B
Sat 15:18:36 40.6010 -117.2230 64° Northeast 492 566 37,000  Level FlightAware ADS-B
Sat 15:19:10 40.6300 -117.1450 64° Northeast 492 566 37,000  Level FlightAware ADS-B
Sat 15:19:58 40.6710 -117.0350 64° Northeast 492 566 37,000  Level FlightAware ADS-B
Sat 15:20:34 40.7010 -116.9530 64° Northeast 492 566 37,000  Level FlightAware ADS-B
Sat 15:21:25 40.7450 -116.8360 64° Northeast 492 566 37,000  Level FlightAware ADS-B
Sat 15:22:14 40.7860 -116.7230 64° Northeast 492 566 37,000  Level FlightAware ADS-B
Sat 15:22:50 40.8170 -116.6400 64° Northeast 492 566 37,000  Level FlightAware ADS-B
Sat 15:24:50 41.0280 -116.0270 65° Northeast 498 573 37,000  Level FlightAware ADS-B
Sat 15:25:23 41.0591 -115.9380 65° Northeast 498 573 37,000  Level FlightAware ADS-B
Sat 15:26:02 41.0968 -115.8300 65° Northeast 498 573 37,000  Level FlightAware ADS-B
Sat 15:27:11 41.1500 -115.6770 65° Northeast 500 575 37,000  Level FlightAware ADS-B
Sat 15:27:31 41.1823 -115.5820 66° East 501 577 37,000  Level FlightAware ADS-B
Sat 15:28:45 41.2530 -115.3770 65° Northeast 501 577 37,000  Level FlightAware ADS-B
Sat 15:29:19 41.2856 -115.2800 66° East 504 580 37,000  Level FlightAware ADS-B
Sat 15:29:49 41.3142 -115.1960 66° East 504 580 37,000  Level FlightAware ADS-B
Sat 15:30:19 41.3432 -115.1100 66° East 504 580 37,000  Level FlightAware ADS-B
Sat 15:30:49 41.3720 -115.0250 66° East 504 580 37,000  Level FlightAware ADS-B
Sat 15:31:24 41.4049 -114.9280 66° East 505 581 37,000  Level FlightAware ADS-B
Sat 15:31:59 41.4382 -114.8280 66° East 505 581 37,000  Level FlightAware ADS-B
Sat 15:32:31 41.4689 -114.7360 66° East 505 581 37,000  Level FlightAware ADS-B
Sat 15:33:11 41.5065 -114.6230 66° East 505 581 37,000  Level FlightAware ADS-B
Sat 15:33:42 41.5352 -114.5370 66° East 506 582 37,000  Level FlightAware ADS-B
Sat 15:34:12 41.5637 -114.4510 66° East 506 582 37,000  Level FlightAware ADS-B
Sat 15:34:42 41.5922 -114.3640 66° East 506 582 37,000  Level FlightAware ADS-B
Sat 15:35:12 41.6206 -114.2780 66° East 506 582 37,000  Level FlightAware ADS-B
Sat 15:35:43 41.6492 -114.1900 66° East 506 582 37,000  Level FlightAware ADS-B
Sat 15:36:14 41.6778 -114.1020 66° East 506 582 37,000  Level FlightAware ADS-B
Sat 15:36:44 41.7065 -114.0150 66° East 507 583 37,000  Level FlightAware ADS-B
Sat 15:37:19 41.7392 -113.9140 67° East 508 585 37,000  Level FlightAware ADS-B
Sat 15:37:56 41.7728 -113.8100 67° East 508 585 37,000  Level FlightAware ADS-B
Sat 15:38:27 41.8022 -113.7180 67° East 508 585 37,000  Level FlightAware ADS-B
Sat 15:38:57 41.8302 -113.6310 67° East 509 586 37,000  Level FlightAware ADS-B
Sat 15:39:29 41.8595 -113.5390 67° East 508 585 37,000  Level FlightAware ADS-B
Sat 15:40:28 41.9133 -113.3710 67° East 508 585 37,000  Level FlightAware ADS-B
Sat 15:41:06 41.9480 -113.2590 67° East 508 585 37,000  Level FlightAware ADS-B
Sat 15:41:29 41.9694 -113.1930 66° East 509 586 37,000  Level FlightAware ADS-B
Sat 15:42:03 42.0006 -113.0940 67° East 509 586 37,000  Level FlightAware ADS-B
Sat 15:42:54 42.0473 -112.9440 67° East 509 586 37,000  Level FlightAware ADS-B
Sat 15:43:38 42.0874 -112.8160 67° East 509 586 37,000  Level FlightAware ADS-B
Sat 15:44:26 42.1300 -112.6790 67° East 507 583 37,000  Level FlightAware ADS-B
Sat 15:44:50 42.1519 -112.6070 68° East 509 586 37,000  Level FlightAware ADS-B
Sat 15:45:26 42.1840 -112.5030 67° East 508 585 37,000  Level FlightAware ADS-B
Sat 15:46:07 42.2211 -112.3840 67° East 508 585 37,000  Level FlightAware ADS-B
Sat 15:46:30 42.2435 -112.3170 66° East 505 581 37,000  Level FlightAware ADS-B
Sat 15:47:10 42.2814 -112.2020 66° East 505 581 37,000  Level FlightAware ADS-B
Sat 15:48:12 42.3398 -112.0230 66° East 508 585 37,000  Level FlightAware ADS-B
Sat 15:48:42 42.3682 -111.9360 66° East 507 583 37,000  Level FlightAware ADS-B
Sat 15:49:13 42.3963 -111.8480 67° East 508 585 37,000  Level FlightAware ADS-B
Sat 15:49:48 42.4298 -111.7430 67° East 508 585 37,000  Level FlightAware ADS-B
Sat 15:50:41 42.4790 -111.5890 67° East 510 587 37,000  Level FlightAware ADS-B
Sat 15:51:28 42.5222 -111.4530 67° East 509 586 37,000  Level FlightAware ADS-B
Sat 15:52:04 42.5550 -111.3510 66° East 509 586 37,000  Level FlightAware ADS-B
Sat 15:52:45 42.5890 -111.2440 67° East 509 586 37,000  Level FlightAware ADS-B
Sat 15:53:26 42.6230 -111.1420 66° East 509 586 37,000  Level FlightAware ADS-B
Sat 15:53:50 42.6420 -111.0820 67° East 509 586 37,000  Level FlightAware ADS-B
Sat 15:54:30 42.6750 -110.9830 66° East 509 586 37,000  Level FlightAware ADS-B
Sat 15:55:18 42.7140 -110.8640 66° East 509 586 37,000  Level FlightAware ADS-B
Sat 15:55:54 42.7430 -110.7740 66° East 509 586 37,000  Level FlightAware ADS-B
Sat 15:56:31 42.7730 -110.6820 66° East 509 586 37,000  Level FlightAware ADS-B
Sat 15:57:05 42.8010 -110.5970 66° East 509 586 37,000  Level FlightAware ADS-B
Sat 15:58:00 42.8460 -110.4600 66° East 509 586 37,000  Level FlightAware ADS-B
Sat 15:58:40 42.8780 -110.3600 66° East 509 586 37,000  Level FlightAware ADS-B
Sat 15:59:27 42.9170 -110.2430 65° Northeast 509 586 37,000  Level FlightAware ADS-B
Sat 16:00:07 42.9490 -110.1430 66° East 509 586 37,000  Level FlightAware ADS-B
Sat 16:00:41 42.9770 -110.0580 66° East 509 586 37,000  Level FlightAware ADS-B
Sat 16:01:17 43.0060 -109.9680 66° East 509 586 37,000  Level FlightAware ADS-B
Sat 16:02:41 43.0586 -109.4556 66° East 511 588 37,000  Level Salt Lake Center
Sat 16:03:43 43.1089 -109.2750 69° East 510 587 37,000  Level Salt Lake Center
Sat 16:04:45 43.1344 -109.0814 80° East 518 596 37,000  Level Salt Lake Center
Sat 16:05:47 43.1575 -108.8886 81° East 515 593 37,000  Level Salt Lake Center
Sat 16:06:48 43.1806 -108.6569 82° East 515 593 37,000  Level Salt Lake Center
Sat 16:07:50 43.1986 -108.4608 83° East 517 595 37,000  Level Salt Lake Center
Sat 16:08:52 43.2117 -108.2628 85° East 521 600 37,000  Level Salt Lake Center
Sat 16:09:54 43.2258 -108.0647 84° East 524 603 37,000  Level Salt Lake Center
Sat 16:10:56 43.2397 -107.8678 84° East 523 602 37,000  Level Salt Lake Center
Sat 16:11:58 43.2547 -107.6753 84° East 517 595 37,000  Level Salt Lake Center
Sat 16:12:59 43.2714 -107.4358 84° East 524 603 37,000  Level Salt Lake Center
Sat 16:14:01 43.2839 -107.2356 85° East 528 608 37,000  Level Salt Lake Center
Sat 16:15:03 43.2989 -107.0375 84° East 527 606 37,000  Level Salt Lake Center
Sat 16:16:05 43.3356 -106.8261 77° East 514 592 37,000  Level Salt Lake Center
Sat 16:16:56 43.3647 -106.6711 75° East 515 593 37,000  Level Denver Center
Sat 16:17:58 43.3983 -106.4847 76° East 520 598 37,000  Level Denver Center
Sat 16:19:00 43.4514 -106.2739 71° East 522 601 37,000  Level Denver Center
Sat 16:20:02 43.4997 -106.0942 70° East 523 602 37,000  Level Denver Center
Sat 16:21:03 43.5569 -105.8839 69° East 522 601 37,000  Level Denver Center
Sat 16:22:05 43.5969 -105.7353 70° East 519 597 37,000  Level Denver Center
Sat 16:23:07 43.6547 -105.5233 69° East 525 604 37,000  Level Denver Center
Sat 16:24:09 43.7125 -105.3142 69° East 524 603 37,000  Level Denver Center
Sat 16:25:11 43.7594 -105.1361 70° East 517 595 37,000  Level Denver Center
Sat 16:26:12 43.8161 -104.9283 69° East 516 594 37,000  Level Denver Center
Sat 16:27:14 43.8653 -104.7506 69° East 516 594 37,000  Level Denver Center
Sat 16:28:16 43.9222 -104.5442 69° East 515 593 37,000  Level Denver Center
Sat 16:29:18 43.9711 -104.3683 69° East 510 587 37,000  Level Denver Center
Sat 16:30:20 44.0206 -104.1961 68° East 503 579 37,000  Level Denver Center
Sat 16:31:22 44.0811 -103.9953 67° East 504 580 37,000  Level Denver Center
Sat 16:32:23 44.1358 -103.8228 66° East 506 582 37,000  Level Denver Center
Sat 16:33:25 44.2081 -103.6303 62° Northeast 502 578 37,000  Level Denver Center
Sat 16:34:27 44.2578 -103.4558 68° East 503 579 37,000  Level Denver Center
Sat 16:35:29 44.3097 -103.2481 71° East 508 585 37,000  Level Denver Center
Sat 16:36:31 44.3525 -103.0653 72° East 502 578 37,000  Level Denver Center
Sat 16:37:32 44.3642 -102.8647 85° East 514 592 37,000  Level Denver Center
Sat 16:38:34 44.3783 -102.6681 84° East 513 590 37,000  Level Denver Center
Sat 16:39:36 44.3914 -102.4683 85° East 515 593 37,000  Level Denver Center
Sat 16:40:38 44.4050 -102.2694 84° East 515 593 37,000  Level Denver Center
Sat 16:41:40 44.4417 -102.0342 78° East 520 598 37,000  Level Denver Center
Sat 16:42:42 44.4719 -101.8378 78° East 517 595 37,000  Level Denver Center
Sat 16:43:43 44.5017 -101.6397 78° East 520 598 37,000  Level Denver Center
Sat 16:44:45 44.5322 -101.4414 78° East 521 600 37,000  Level Denver Center
Sat 16:45:43 44.5625 -101.2444 78° East 521 600 37,000  Level Minneapolis Center
Sat 16:46:45 44.5953 -101.0486 77° East 520 598 37,000  Level Minneapolis Center
Sat 16:47:47 44.6286 -100.8528 76° East 519 597 37,000  Level Minneapolis Center
Sat 16:48:49 44.6611 -100.6581 77° East 516 594 37,000  Level Minneapolis Center
Sat 16:49:51 44.6933 -100.4642 77° East 514 592 37,000  Level Minneapolis Center
Sat 16:50:53 44.7308 -100.2308 77° East 514 592 37,000  Level Minneapolis Center
Sat 16:51:55 44.7603 -100.0378 78° East 512 589 37,000  Level Minneapolis Center
Sat 16:53:10 44.7689 -99.7986 87° East 516 594 37,000  Level Minneapolis Center
Sat 16:54:12 44.7747 -99.5992 88° East 517 595 37,000  Level Minneapolis Center
Sat 16:55:26 44.7836 -99.3186 87° East 518 596 37,000  Level Minneapolis Center
Sat 17:00:54 44.9550 -98.2530 87° East 513 590 37,000  Level FlightAware ADS-B
Sat 17:01:45 44.9730 -98.0730 82° East 516 594 37,000  Level FlightAware ADS-B
Sat 17:02:25 44.9840 -97.9410 83° East 517 595 37,000  Level FlightAware ADS-B
Sat 17:03:09 44.9960 -97.7920 83° East 517 595 37,000  Level FlightAware ADS-B
Sat 17:03:51 45.0060 -97.6780 83° East 517 595 37,000  Level FlightAware ADS-B
Sat 17:04:25 45.0150 -97.5810 82° East 517 595 37,000  Level FlightAware ADS-B
Sat 17:05:13 45.0290 -97.4160 83° East 519 597 37,000  Level FlightAware ADS-B
Sat 17:05:56 45.0450 -97.2420 83° East 520 598 37,000  Level FlightAware ADS-B
Sat 17:06:39 45.0590 -97.0860 83° East 521 600 37,000  Level FlightAware ADS-B
Sat 17:07:17 45.0710 -96.9600 82° East 521 600 37,000  Level FlightAware ADS-B
Sat 17:08:01 45.0860 -96.8120 82° East 522 601 37,000  Level FlightAware ADS-B
Sat 17:08:45 45.1020 -96.6610 81° East 523 602 37,000  Level FlightAware ADS-B
Sat 17:09:24 45.1150 -96.5330 82° East 523 602 37,000  Level FlightAware ADS-B
Sat 17:10:05 45.1290 -96.3910 82° East 524 603 37,000  Level FlightAware ADS-B
Sat 17:10:43 45.1420 -96.2620 82° East 524 603 37,000  Level FlightAware ADS-B
Sat 17:11:21 45.1530 -96.1660 81° East 523 602 37,000  Level FlightAware ADS-B
Sat 17:12:07 45.1800 -95.9810 78° East 522 601 37,000  Level FlightAware ADS-B
Sat 17:12:43 45.1980 -95.8600 78° East 524 603 37,000  Level FlightAware ADS-B
Sat 17:13:19 45.2160 -95.7380 78° East 523 602 37,000  Level FlightAware ADS-B
Sat 17:14:05 45.2390 -95.5840 78° East 520 598 37,000  Level FlightAware ADS-B
Sat 17:14:50 45.2590 -95.4470 78° East 518 596 37,000  Level FlightAware ADS-B
Sat 17:15:31 45.2800 -95.3060 78° East 517 595 37,000  Level FlightAware ADS-B
Sat 17:16:15 45.3040 -95.1660 76° East 516 594 37,000  Level FlightAware ADS-B
Sat 17:16:54 45.3290 -95.0300 75° East 516 594 37,000  Level FlightAware ADS-B
Sat 17:17:31 45.3510 -94.9060 76° East 516 594 37,000  Level FlightAware ADS-B
Sat 17:18:11 45.3740 -94.7750 76° East 515 593 37,000  Level FlightAware ADS-B
Sat 17:18:53 45.3990 -94.6390 75° East 516 594 37,000  Level FlightAware ADS-B
Sat 17:19:31 45.4180 -94.5170 77° East 517 595 37,000  Level FlightAware ADS-B
Sat 17:20:15 45.4220 -94.3840 87° East 522 601 37,000  Level FlightAware ADS-B
Sat 17:20:53 45.4150 -94.2530 94° East 523 602 37,000  Level FlightAware ADS-B
Sat 17:21:44 45.4000 -94.0600 96° East 524 603 37,000  Level FlightAware ADS-B
Sat 17:22:23 45.3890 -93.9250 97° East 524 603 37,000  Level FlightAware ADS-B
Sat 17:23:05 45.3760 -93.7800 97° East 525 604 37,000  Level FlightAware ADS-B
Sat 17:23:37 45.3670 -93.6740 97° East 525 604 37,000  Level FlightAware ADS-B
Sat 17:24:21 45.3540 -93.5280 97° East 526 605 37,000  Level FlightAware ADS-B
Sat 17:25:03 45.3410 -93.3770 97° East 528 608 37,000  Level FlightAware ADS-B
Sat 17:25:44 45.3290 -93.2400 97° East 526 605 37,000  Level FlightAware ADS-B
Sat 17:26:28 45.3150 -93.0840 97° East 526 605 37,000  Level FlightAware ADS-B
Sat 17:27:08 45.3020 -92.9480 98° East 526 605 37,000  Level FlightAware ADS-B
Sat 17:27:52 45.2880 -92.8000 98° East 526 605 37,000  Level FlightAware ADS-B
Sat 17:28:28 45.2770 -92.6800 97° East 525 604 37,000  Level FlightAware ADS-B
Sat 17:29:07 45.2640 -92.5460 98° East 525 604 37,000  Level FlightAware ADS-B
Sat 17:29:50 45.2500 -92.3970 98° East 525 604 37,000  Level FlightAware ADS-B
Sat 17:30:27 45.2390 -92.2820 98° East 527 606 37,000  Level FlightAware ADS-B
Sat 17:31:13 45.2220 -92.1190 98° East 526 605 37,000  Level FlightAware ADS-B
Sat 17:31:52 45.2090 -91.9830 98° East 526 605 37,000  Level FlightAware ADS-B
Sat 17:32:40 45.1920 -91.8190 98° East 528 608 37,000 267 Level FlightAware ADS-B
Sat 17:33:22 45.1770 -91.6750 98° East 529 609 37,400 767 Climbing FlightAware ADS-B
Sat 17:34:06 45.1610 -91.5250 99° East 528 608 38,100 1,000 Climbing FlightAware ADS-B
Sat 17:34:46 45.1470 -91.3860 98° East 525 604 38,800 692 Climbing FlightAware ADS-B
Sat 17:35:24 45.1330 -91.2570 99° East 521 600 39,000 143 Climbing FlightAware ADS-B
Sat 17:36:10 45.1180 -91.1180 99° East 517 595 39,000  Level FlightAware ADS-B
Sat 17:36:49 45.1020 -90.9760 99° East 522 601 39,000  Level FlightAware ADS-B
Sat 17:37:29 45.0890 -90.8540 99° East 523 602 39,000  Level FlightAware ADS-B
Sat 17:38:10 45.0720 -90.7040 99° East 525 604 39,000  Level FlightAware ADS-B
Sat 17:38:44 45.0590 -90.5910 99° East 527 606 39,000  Level FlightAware ADS-B
Sat 17:39:27 45.0420 -90.4440 99° East 529 609 39,000  Level FlightAware ADS-B
Sat 17:40:08 45.0260 -90.3010 99° East 530 610 39,000  Level FlightAware ADS-B
Sat 17:40:44 45.0110 -90.1770 100° East 530 610 39,000  Level FlightAware ADS-B
Sat 17:41:23 44.9980 -90.0660 99° East 530 610 39,000  Level FlightAware ADS-B
Sat 17:42:05 44.9810 -89.9280 100° East 529 609 39,000  Level FlightAware ADS-B
Sat 17:42:42 44.9650 -89.7880 99° East 528 608 39,000  Level FlightAware ADS-B
Sat 17:43:25 44.9460 -89.6350 100° East 526 605 39,000  Level FlightAware ADS-B
Sat 17:44:05 44.9290 -89.4970 100° East 525 604 39,000  Level FlightAware ADS-B
Sat 17:44:49 44.9110 -89.3510 100° East 524 603 39,000  Level FlightAware ADS-B
Sat 17:45:31 44.8930 -89.2130 100° East 523 602 39,000  Level FlightAware ADS-B
Sat 17:46:12 44.8760 -89.0750 100° East 523 602 39,000  Level FlightAware ADS-B
Sat 17:46:51 44.8590 -88.9440 100° East 522 601 39,000  Level FlightAware ADS-B
Sat 17:47:28 44.8420 -88.8150 100° East 522 601 39,000  Level FlightAware ADS-B
Sat 17:48:10 44.8240 -88.6750 100° East 523 602 39,000  Level FlightAware ADS-B
Sat 17:48:51 44.8060 -88.5440 101° East 523 602 39,000  Level FlightAware ADS-B
Sat 17:49:28 44.7900 -88.4240 101° East 523 602 39,000  Level FlightAware ADS-B
Sat 17:50:12 44.7690 -88.2670 101° East 523 602 39,000  Level FlightAware ADS-B
Sat 17:50:51 44.7520 -88.1410 101° East 523 602 39,000  Level FlightAware ADS-B
Sat 17:51:28 44.7350 -88.0150 101° East 523 602 39,000  Level FlightAware ADS-B
Sat 17:52:09 44.7160 -87.8780 101° East 523 602 39,000  Level FlightAware ADS-B
Sat 17:52:49 44.6970 -87.7450 101° East 524 603 39,000  Level FlightAware ADS-B
Sat 17:53:34 44.6760 -87.5950 101° East 524 603 39,000  Level FlightAware ADS-B
Sat 17:54:11 44.6590 -87.4750 101° East 524 603 39,000  Level FlightAware ADS-B
Sat 17:54:56 44.6410 -87.3480 101° East 524 603 39,000  Level FlightAware ADS-B
Sat 17:55:39 44.6170 -87.1850 102° East 523 602 39,000  Level FlightAware ADS-B
Sat 17:56:16 44.5980 -87.0560 102° East 523 602 39,000  Level FlightAware ADS-B
Sat 17:57:04 44.5790 -86.9170 101° East 523 602 39,000  Level FlightAware ADS-B
Sat 17:57:31 44.5970 -86.8110 77° East 526 605 39,000  Level FlightAware ADS-B
Sat 17:58:13 44.6120 -86.6650 82° East 527 606 39,000  Level FlightAware ADS-B
Sat 17:58:48 44.6290 -86.5520 78° East 527 606 39,000  Level FlightAware ADS-B
Sat 17:59:51 44.6760 -86.3410 73° East 527 606 39,000  Level FlightAware ADS-B
Sat 18:00:31 44.7050 -86.2150 72° East 528 608 39,000  Level FlightAware ADS-B
Sat 18:01:09 44.7330 -86.0870 73° East 528 608 39,000  Level FlightAware ADS-B
Sat 18:01:51 44.7550 -85.9780 74° East 530 610 39,000  Level FlightAware ADS-B
Sat 18:02:39 44.7920 -85.7990 74° East 531 611 39,000  Level FlightAware ADS-B
Sat 18:03:20 44.8210 -85.6560 74° East 530 610 39,000  Level FlightAware ADS-B
Sat 18:04:03 44.8520 -85.5080 73° East 530 610 39,000  Level FlightAware ADS-B
Sat 18:04:40 44.8760 -85.3870 74° East 531 611 39,000  Level FlightAware ADS-B
Sat 18:05:22 44.9040 -85.2480 74° East 533 613 39,000  Level FlightAware ADS-B
Sat 18:06:04 44.9330 -85.1070 74° East 533 613 39,000  Level FlightAware ADS-B
Sat 18:06:52 44.9660 -84.9510 73° East 532 612 39,000  Level FlightAware ADS-B
Sat 18:07:32 44.9960 -84.8160 73° East 533 613 39,000  Level FlightAware ADS-B
Sat 18:08:14 45.0270 -84.6760 73° East 533 613 39,000  Level FlightAware ADS-B
Sat 18:08:56 45.0600 -84.5390 71° East 533 613 39,000  Level FlightAware ADS-B
Sat 18:09:34 45.0880 -84.4130 72° East 534 615 39,000  Level FlightAware ADS-B
Sat 18:10:14 45.1150 -84.2780 74° East 535 616 39,000  Level FlightAware ADS-B
Sat 18:10:54 45.1400 -84.1420 75° East 536 617 39,000  Level FlightAware ADS-B
Sat 18:11:38 45.1660 -83.9930 76° East 537 618 39,000  Level FlightAware ADS-B
Sat 18:12:18 45.1900 -83.8570 76° East 539 620 39,000  Level FlightAware ADS-B
Sat 18:13:02 45.2170 -83.7050 76° East 541 623 39,000  Level FlightAware ADS-B
Sat 18:13:56 45.2210 -83.5220 88° East 537 618 39,000  Level FlightAware ADS-B
Sat 18:14:39 45.2170 -83.3700 92° East 538 619 39,000  Level FlightAware ADS-B
Sat 18:15:27 45.2120 -83.2140 93° East 540 621 39,000  Level FlightAware ADS-B
Sat 18:16:08 45.2090 -83.0500 91° East 542 624 39,000  Level FlightAware ADS-B
Sat 18:16:50 45.2040 -82.9050 93° East 537 618 39,000  Level FlightAware ADS-B
Sat 18:17:27 45.1920 -82.8010 99° East 534 615 39,000  Level FlightAware ADS-B
Sat 18:18:10 45.1590 -82.6320 105° East 532 612 39,000  Level FlightAware ADS-B
Sat 18:18:52 45.1310 -82.4930 106° East 533 613 39,000  Level FlightAware ADS-B
Sat 18:19:27 45.1060 -82.3740 107° East 533 613 39,000  Level FlightAware ADS-B
Sat 18:20:22 45.0590 -82.1990 111° Southeast 525 604 39,000  Level FlightAware ADS-B
Sat 18:21:07 45.0120 -82.0570 115° Southeast 524 603 39,000  Level FlightAware ADS-B
Sat 18:21:49 44.9680 -81.9280 116° Southeast 525 604 39,000  Level FlightAware ADS-B
Sat 18:22:28 44.9260 -81.8100 117° Southeast 525 604 39,000  Level FlightAware ADS-B
Sat 18:23:12 44.8780 -81.6740 116° Southeast 525 604 39,000  Level FlightAware ADS-B
Sat 18:23:52 44.8380 -81.5610 116° Southeast 526 605 39,000  Level FlightAware ADS-B
Sat 18:24:24 44.8010 -81.4600 117° Southeast 527 606 39,000  Level FlightAware ADS-B
Sat 18:24:57 44.7700 -81.3740 117° Southeast 528 608 39,000  Level FlightAware ADS-B
Sat 18:25:48 44.7110 -81.2100 117° Southeast 528 608 39,000  Level FlightAware ADS-B
Sat 18:26:29 44.6760 -81.1150 117° Southeast 527 606 39,000  Level FlightAware ADS-B
Sat 18:27:17 44.6110 -80.9370 117° Southeast 526 605 39,000  Level FlightAware ADS-B
Sat 18:27:57 44.5670 -80.8170 117° Southeast 525 604 39,000  Level FlightAware ADS-B
Sat 18:28:42 44.5160 -80.6790 117° Southeast 524 603 39,000  Level FlightAware ADS-B
Sat 18:29:22 44.4710 -80.5580 117° Southeast 522 601 39,000  Level FlightAware ADS-B
Sat 18:30:02 44.4270 -80.4380 117° Southeast 523 602 39,000  Level FlightAware ADS-B
Sat 18:30:48 44.3770 -80.3040 118° Southeast 524 603 39,000  Level FlightAware ADS-B
Sat 18:31:24 44.3370 -80.1990 118° Southeast 525 604 39,000  Level FlightAware ADS-B
Sat 18:32:04 44.2940 -80.0840 118° Southeast 525 604 39,000  Level FlightAware ADS-B
Sat 18:32:47 44.2430 -79.9490 118° Southeast 526 605 39,000  Level FlightAware ADS-B
Sat 18:33:42 44.1790 -79.7810 118° Southeast 526 605 39,000  Level FlightAware ADS-B
Sat 18:34:17 44.1390 -79.6770 118° Southeast 525 604 39,000  Level FlightAware ADS-B
Sat 18:34:57 44.0960 -79.5650 118° Southeast 524 603 39,000  Level FlightAware ADS-B
Sat 18:35:42 44.0430 -79.4280 118° Southeast 523 602 39,000  Level FlightAware ADS-B
Sat 18:36:22 43.9970 -79.3090 118° Southeast 521 600 39,000  Level FlightAware ADS-B
Sat 18:37:02 43.9510 -79.1890 118° Southeast 523 602 39,000  Level FlightAware ADS-B
Sat 18:37:42 43.9060 -79.0740 118° Southeast 522 601 39,000  Level FlightAware ADS-B
Sat 18:38:23 43.8610 -78.9570 118° Southeast 521 600 39,000  Level FlightAware ADS-B
Sat 18:39:12 43.8020 -78.8080 119° Southeast 520 598 39,000  Level FlightAware ADS-B
Sat 18:39:47 43.7680 -78.7200 118° Southeast 520 598 39,000  Level FlightAware ADS-B
Sat 18:40:37 43.7070 -78.5650 119° Southeast 519 597 39,000  Level FlightAware ADS-B
Sat 18:41:20 43.6580 -78.4440 119° Southeast 517 595 39,000  Level FlightAware ADS-B
Sat 18:42:02 43.6070 -78.3160 119° Southeast 516 594 39,000  Level FlightAware ADS-B
Sat 18:42:47 43.5560 -78.1870 119° Southeast 515 593 39,000  Level FlightAware ADS-B
Sat 18:43:27 43.5120 -78.0780 119° Southeast 514 592 39,000  Level FlightAware ADS-B
Sat 18:44:07 43.4660 -77.9630 119° Southeast 513 590 39,000  Level FlightAware ADS-B
Sat 18:44:52 43.4120 -77.8300 119° Southeast 513 590 39,000  Level FlightAware ADS-B
Sat 18:45:27 43.3710 -77.7310 120° Southeast 513 590 39,000  Level FlightAware ADS-B
Sat 18:46:07 43.3250 -77.6180 119° Southeast 512 589 39,000  Level FlightAware ADS-B
Sat 18:46:48 43.2830 -77.5150 119° Southeast 511 588 39,000  Level FlightAware ADS-B
Sat 18:47:34 43.2330 -77.3930 119° Southeast 510 587 39,000  Level FlightAware ADS-B
Sat 18:48:20 43.1740 -77.2520 120° Southeast 509 586 39,000  Level FlightAware ADS-B
Sat 18:49:02 43.1220 -77.1260 119° Southeast 506 582 39,000  Level FlightAware ADS-B
Sat 18:49:47 43.0730 -77.0090 120° Southeast 506 582 39,000  Level FlightAware ADS-B
Sat 18:50:27 43.0240 -76.8920 120° Southeast 506 582 39,000  Level FlightAware ADS-B
Sat 18:51:12 42.9710 -76.7660 120° Southeast 506 582 39,000  Level FlightAware ADS-B
Sat 18:51:49 42.9290 -76.6670 120° Southeast 505 581 39,000  Level FlightAware ADS-B
Sat 18:52:38 42.8780 -76.5150 115° Southeast 514 592 39,000  Level FlightAware ADS-B
Sat 18:53:23 42.8370 -76.3790 112° Southeast 513 590 39,000  Level FlightAware ADS-B
Sat 18:54:07 42.7970 -76.2500 113° Southeast 500 575 39,000  Level FlightAware ADS-B
Sat 18:54:49 42.7580 -76.1280 113° Southeast 494 568 39,000  Level FlightAware ADS-B
Sat 18:55:19 42.7310 -76.0460 114° Southeast 491 565 39,000  Level FlightAware ADS-B
Sat 18:55:59 42.6940 -75.9320 114° Southeast 491 565 39,000  Level FlightAware ADS-B
Sat 18:56:39 42.6570 -75.8180 114° Southeast 494 568 39,000  Level FlightAware ADS-B
Sat 18:57:23 42.6170 -75.6950 114° Southeast 495 570 39,000  Level FlightAware ADS-B
Sat 18:58:03 42.5790 -75.5810 114° Southeast 495 570 39,000  Level FlightAware ADS-B
Sat 18:58:35 42.5500 -75.4910 114° Southeast 494 568 39,000  Level FlightAware ADS-B
Sat 18:59:09 42.5180 -75.3950 114° Southeast 493 567 39,000  Level FlightAware ADS-B
Sat 18:59:47 42.4820 -75.2870 114° Southeast 491 565 39,000  Level FlightAware ADS-B
Sat 19:00:29 42.4330 -75.1810 122° Southeast 462 532 39,000  Level FlightAware ADS-B
Sat 19:00:45 42.4050 -75.1560 147° Southeast 443 510 39,000  Level FlightAware ADS-B
Sat 19:01:14 42.3510 -75.1400 168° South 413 475 39,000  Level FlightAware ADS-B
Sat 19:01:58 42.2790 -75.1700 197° South 385 443 39,000  Level FlightAware ADS-B
Sat 19:02:37 42.2342 -75.2432 230° Southwest 373 429 39,000  Level FlightAware ADS-B
Sat 19:02:44 42.2296 -75.2602 250° West 373 429 39,000  Level FlightAware ADS-B
Sat 19:03:07 42.2241 -75.3115 262° West 377 434 39,000  Level FlightAware ADS-B
Sat 19:03:23 42.2278 -75.3507 277° West 384 442 39,000  Level FlightAware ADS-B
Sat 19:03:32 42.2323 -75.3704 287° West 388 447 39,000  Level FlightAware ADS-B
Sat 19:04:12 42.2588 -75.4602 292° West 388 447 39,000  Level FlightAware ADS-B
Sat 19:04:47 42.2800 -75.5310 292° West 387 445 39,000  Level FlightAware ADS-B
Sat 19:05:33 42.3150 -75.6390 294° West 385 443 39,000  Level FlightAware ADS-B
Sat 19:06:17 42.3480 -75.7360 295° West 382 440 39,000  Level FlightAware ADS-B
Sat 19:06:41 42.3650 -75.7870 294° West 379 436 39,000  Level FlightAware ADS-B
Sat 19:06:57 42.3810 -75.8200 303° West 390 449 39,000  Level FlightAware ADS-B
Sat 19:07:37 42.4340 -75.8760 322° Northwest 420 483 39,000  Level FlightAware ADS-B
Sat 19:08:41 42.5540 -75.8680 North 495 570 39,000  Level FlightAware ADS-B
Sat 19:08:56 42.5910 -75.8230 42° Northeast 511 588 39,000  Level FlightAware ADS-B
Sat 19:09:24 42.6150 -75.7390 69° East 513 590 39,000  Level FlightAware ADS-B
Sat 19:10:03 42.5950 -75.6220 103° East 490 564 39,000  Level FlightAware ADS-B
Sat 19:10:41 42.5580 -75.5130 115° Southeast 487 560 39,000  Level FlightAware ADS-B
Sat 19:11:25 42.5170 -75.3930 115° Southeast 484 557 39,000  Level FlightAware ADS-B
Sat 19:12:05 42.4800 -75.2810 114° Southeast 482 555 39,000  Level FlightAware ADS-B
Sat 19:12:22 42.4636 -75.2330 115° Southeast 481 554 39,000  Level FlightAware ADS-B
Sat 19:13:17 42.3779 -75.1433 142° Southeast 426 490 39,000  Level FlightAware ADS-B
Sat 19:13:25 42.3610 -75.1394 170° South 416 479 39,000  Level FlightAware ADS-B
Sat 19:13:33 42.3458 -75.1385 177° South 409 471 39,000  Level FlightAware ADS-B
Sat 19:13:42 42.3307 -75.1398 184° South 404 465 39,000  Level FlightAware ADS-B
Sat 19:14:05 42.2897 -75.1567 197° South 388 447 39,000  Level FlightAware ADS-B
Sat 19:14:15 42.2747 -75.1686 210° Southwest 383 441 39,000  Level FlightAware ADS-B
Sat 19:14:38 42.2457 -75.2058 224° Southwest 376 433 39,000  Level FlightAware ADS-B
Sat 19:14:57 42.2290 -75.2449 240° Southwest 373 429 39,000  Level FlightAware ADS-B
Sat 19:15:05 42.2248 -75.2608 250° West 374 430 39,000  Level FlightAware ADS-B
Sat 19:15:24 42.2192 -75.3041 260° West 376 433 39,000  Level FlightAware ADS-B
Sat 19:15:42 42.2218 -75.3469 275° West 380 437 39,000  Level FlightAware ADS-B
Sat 19:15:46 42.2233 -75.3559 283° West 381 438 39,000  Level FlightAware ADS-B
Sat 19:16:07 42.2368 -75.4021 292° West 385 443 39,000  Level FlightAware ADS-B
Sat 19:16:38 42.2550 -75.4700 290° West 379 436 39,000  Level FlightAware ADS-B
Sat 19:16:51 42.2643 -75.5012 292° West 380 437 39,000  Level FlightAware ADS-B
Sat 19:17:53 42.3080 -75.6340 294° West 376 433 39,000  Level FlightAware ADS-B
Sat 19:18:37 42.3400 -75.7280 295° West 374 430 39,000  Level FlightAware ADS-B
Sat 19:19:17 42.3740 -75.8090 300° West 390 449 39,000  Level FlightAware ADS-B
Sat 19:20:02 42.4450 -75.8690 328° Northwest 439 505 39,000  Level FlightAware ADS-B
Sat 19:20:41 42.5270 -75.8610 North 484 557 39,000  Level FlightAware ADS-B
Sat 19:21:00 42.5630 -75.8300 32° Northeast 501 577 39,000  Level FlightAware ADS-B
Sat 19:21:25 42.5970 -75.7630 55° Northeast 515 593 39,000  Level FlightAware ADS-B
Sat 19:22:09 42.6000 -75.6280 88° East 502 578 39,000  Level FlightAware ADS-B
Sat 19:22:49 42.5500 -75.5230 123° Southeast 488 562 39,000  Level FlightAware ADS-B
Sat 19:23:31 42.4930 -75.4210 127° Southeast 494 568 39,000 -349 Level FlightAware ADS-B
Sat 19:24:15 42.4340 -75.3090 125° Southeast 498 573 38,500 -1,553 Descending FlightAware ADS-B
Sat 19:24:56 42.3810 -75.2040 124° Southeast 503 579 36,800 -2,550 Descending FlightAware ADS-B
Sat 19:25:35 42.3320 -75.1060 124° Southeast 507 583 35,100 -2,819 Descending FlightAware ADS-B
Sat 19:26:19 42.2710 -74.9860 124° Southeast 512 589 32,900 -2,093 Descending FlightAware ADS-B
Sat 19:27:01 42.2230 -74.8900 124° Southeast 514 592 32,100 -3,088 Descending FlightAware ADS-B
Sat 19:27:27 42.1788 -74.8048 125° Southeast 513 590 29,400 -2,651 Descending FlightAware ADS-B
Sat 19:28:27 42.0976 -74.6467 125° Southeast 522 601 28,300 -724 Descending FlightAware ADS-B
Sat 19:29:23 42.0261 -74.5082 125° Southeast 485 558 28,000 -198 Descending FlightAware ADS-B
Sat 19:29:58 41.9808 -74.4213 125° Southeast 492 566 28,000 -674 Level FlightAware ADS-B
Sat 19:30:52 41.9100 -74.2860 125° Southeast 501 577 27,000 -1,054 Descending FlightAware ADS-B
Sat 19:31:12 41.8832 -74.2350 125° Southeast 500 575 26,700 -828 Descending FlightAware ADS-B
Sat 19:31:50 41.8337 -74.1407 125° Southeast 485 558 26,200 -857 Descending FlightAware ADS-B
Sat 19:32:22 41.7926 -74.0627 125° Southeast 472 543 25,700 -1,385 Descending FlightAware ADS-B
Sat 19:32:55 41.7514 -73.9842 125° Southeast 466 536 24,700 -1,882 Descending FlightAware ADS-B
Sat 19:33:13 41.7292 -73.9433 126° Southeast 460 529 24,100 -2,000 Descending FlightAware ADS-B
Sat 19:33:31 41.7007 -73.9089 138° Southeast 449 517 23,500 -2,000 Descending FlightAware ADS-B
Sat 19:33:34 41.6958 -73.9047 147° Southeast 446 513 23,400 -1,714 Descending FlightAware ADS-B
Sat 19:33:45 41.6750 -73.8912 154° Southeast 431 496 23,100 -2,000 Descending FlightAware ADS-B
Sat 19:34:01 41.6453 -73.8815 166° South 433 498 22,500 -2,100 Descending FlightAware ADS-B
Sat 19:34:05 41.6382 -73.8808 176° South 415 478 22,400 -1,714 Descending FlightAware ADS-B
Sat 19:34:15 41.6185 -73.8818 182° South 406 467 22,100 -1,862 Descending FlightAware ADS-B
Sat 19:34:34 41.5860 -73.8934 195° South 391 450 21,500 -1,846 Descending FlightAware ADS-B
Sat 19:34:41 41.5747 -73.9007 206° Southwest 386 444 21,300 -1,200 Descending FlightAware ADS-B
Sat 19:34:44 41.5701 -73.9043 210° Southwest 386 444 21,300 -1,714 Level FlightAware ADS-B
Sat 19:35:16 41.5222 -73.9450 212° Southwest 375 432 20,300 -1,219 Descending FlightAware ADS-B
Sat 19:35:48 41.4756 -73.9854 213° Southwest 374 430 20,000 -286 Descending FlightAware ADS-B
Sat 19:36:19 41.4315 -74.0238 213° Southwest 376 433 20,000  Level FlightAware ADS-B
Sat 19:36:49 41.3871 -74.0621 213° Southwest 376 433 20,000  Level FlightAware ADS-B
Sat 19:37:20 41.3422 -74.1006 213° Southwest 376 433 20,000  Level FlightAware ADS-B
Sat 19:37:32 41.3241 -74.1151 211° Southwest 379 436 20,000  Level FlightAware ADS-B
Sat 19:37:48 41.2979 -74.1301 203° Southwest 386 444 20,000  Level FlightAware ADS-B
Sat 19:37:58 41.2801 -74.1367 196° South 391 450 20,000  Level FlightAware ADS-B
Sat 19:38:05 41.2682 -74.1395 190° South 393 452 20,000 -600 Level FlightAware ADS-B
Sat 19:38:18 41.2449 -74.1418 184° South 400 460 19,800 -1,364 Descending FlightAware ADS-B
Sat 19:38:49 41.1863 -74.1411 179° South 412 474 19,000 -774 Descending FlightAware ADS-B
Sat 19:39:20 41.1274 -74.1392 179° South 405 466 19,000  Level FlightAware ADS-B
Sat 19:39:51 41.0697 -74.1376 179° South 405 466 19,000  Level FlightAware ADS-B
Sat 19:40:22 41.0148 -74.1363 179° South 369 425 19,000  Level FlightAware ADS-B
Sat 19:40:52 40.9655 -74.1355 179° South 343 395 19,000  Level FlightAware ADS-B
Sat 19:41:00 40.9518 -74.1352 179° South 341 392 19,000  Level FlightAware ADS-B
Sat 19:41:06 40.9422 -74.1338 174° South 342 394 19,000  Level FlightAware ADS-B
Sat 19:41:09 40.9385 -74.1329 170° South 342 394 19,000  Level FlightAware ADS-B
Sat 19:41:13 40.9319 -74.1304 164° South 343 395 19,000  Level FlightAware ADS-B
Sat 19:41:14 40.9305 -74.1299 165° South 343 395 19,000  Level FlightAware ADS-B
Sat 19:41:19 40.9228 -74.1258 158° South 345 397 19,000  Level FlightAware ADS-B
Sat 19:41:27 40.9116 -74.1171 150° Southeast 350 403 19,000  Level FlightAware ADS-B
Sat 19:41:28 40.9111 -74.1166 143° Southeast 350 403 19,000  Level FlightAware ADS-B
Sat 19:41:35 40.9023 -74.1064 139° Southeast 354 407 19,000  Level FlightAware ADS-B
Sat 19:41:42 40.8946 -74.0939 129° Southeast 357 411 19,000  Level FlightAware ADS-B
Sat 19:41:44 40.8929 -74.0909 127° Southeast 357 411 19,000 -387 Level FlightAware ADS-B
Sat 19:42:13 40.8657 -74.0369 124° Southeast 362 417 18,800 -400 Descending FlightAware ADS-B
Sat 19:42:14 40.8650 -74.0354 122° Southeast 362 417 18,800 -1,161 Level FlightAware ADS-B
Sat 19:42:44 40.8391 -73.9808 122° Southeast 355 409 18,200 -1,161 Descending FlightAware ADS-B
Sat 19:42:45 40.8381 -73.9788 123° Southeast 355 409 18,200 -1,400 Level FlightAware ADS-B
Sat 19:43:14 40.8124 -73.9256 123° Southeast 349 402 17,500 -1,400 Descending FlightAware ADS-B
Sat 19:43:45 40.7861 -73.8723 123° Southeast 343 395 16,800 -1,472 Descending FlightAware ADS-B
Sat 19:44:07 40.7671 -73.8339 123° Southeast 350 403 16,200 -1,600 Descending FlightAware ADS-B
Sat 19:44:15 40.7595 -73.8187 123° Southeast 339 390 16,000 -1,500 Descending FlightAware ADS-B
Sat 19:44:27 40.7490 -73.7985 124° Southeast 337 388 15,700 -1,535 Descending FlightAware ADS-B
Sat 19:44:58 40.7178 -73.7521 132° Southeast 333 383 14,900 -1,475 Descending FlightAware ADS-B
Sat 19:45:28 40.6850 -73.7090 135° Southeast 324 373 14,200 -1,350 Descending FlightAware ADS-B
Sat 19:45:38 40.6722 -73.6992 150° Southeast 319 367 14,000 -1,548 Descending FlightAware ADS-B
Sat 19:45:59 40.6455 -73.6808 152° Southeast 319 367 13,400 -1,174 Descending FlightAware ADS-B
Sat 19:46:24 40.6121 -73.6573 152° Southeast 314 361 13,100 -621 Descending FlightAware ADS-B
Sat 19:46:28 40.6068 -73.6541 155° Southeast 311 358 13,100  Level FlightAware ADS-B
Sat 19:46:59 40.5686 -73.6361 160° South 279 321 13,100 -118 Level FlightAware ADS-B
Sat 19:47:19 40.5444 -73.6262 163° South 261 300 13,000 -462 Descending FlightAware ADS-B
Sat 19:47:25 40.5371 -73.6251 173° South 256 295 12,900 -1,200 Descending FlightAware ADS-B
Sat 19:47:29 40.5333 -73.6253 182° South 252 290 12,800 -1,500 Descending FlightAware ADS-B
Sat 19:47:33 40.5286 -73.6262 188° South 248 285 12,700 -1,091 Descending FlightAware ADS-B
Sat 19:47:40 40.5212 -73.6297 200° South 241 277 12,600 -1,385 Descending FlightAware ADS-B
Sat 19:47:46 40.5156 -73.6341 211° Southwest 234 269 12,400 -1,895 Descending FlightAware ADS-B
Sat 19:47:59 40.5044 -73.6453 217° Southwest 230 265 12,000 -2,000 Descending FlightAware ADS-B
Sat 19:48:04 40.4994 -73.6494 212° Southwest 234 269 11,800 -2,000 Descending FlightAware ADS-B
Sat 19:48:08 40.4959 -73.6516 206° Southwest 235 270 11,700 -2,000 Descending FlightAware ADS-B
Sat 19:48:13 40.4902 -73.6543 200° South 238 274 11,500 -2,400 Descending FlightAware ADS-B

Login

Don't have an account? Register now (free) for customized features, flight alerts, and more!